Time;durP1;ratioP1;P1;durP2;ratioP2;P2;SDS_P1;SDS_P2;PMS_P1;PMS_P2;Temp;Humidity;BMP_temperature;BMP_pressure;BME280_temperature;BME280_humidity;BME280_pressure;Samples;Min_cycle;Max_cycle;Signal;HPM_P1;HPM_P2
2021/06/03 00:00:21;;;;;;;1.30;1.30;;;;;;;17.61;55.19;96776.84;5115226;28;20054;-74
2021/06/03 00:02:48;;;;;;;2.38;1.60;;;;;;;17.54;54.59;96771.75;5115648;28;20490;-74
2021/06/03 00:05:15;;;;;;;2.95;1.80;;;;;;;17.50;55.06;96762.72;5115583;28;20035;-74
2021/06/03 00:07:41;;;;;;;2.90;2.70;;;;;;;17.47;55.22;96773.00;5115556;28;20039;-74
2021/06/03 00:10:09;;;;;;;2.33;2.22;;;;;;;17.42;55.43;96771.13;5115408;28;20031;-74
2021/06/03 00:12:36;;;;;;;2.08;1.98;;;;;;;17.40;55.51;96770.56;5114223;28;20039;-74
2021/06/03 00:15:05;;;;;;;2.00;1.90;;;;;;;17.33;56.07;96773.44;5115710;28;20028;-74
2021/06/03 00:17:31;;;;;;;1.83;1.73;;;;;;;17.30;56.08;96766.00;5115291;28;20368;-74
2021/06/03 00:19:58;;;;;;;1.80;1.70;;;;;;;17.28;56.28;96770.75;5115277;28;20032;-74
2021/06/03 00:22:25;;;;;;;1.60;1.50;;;;;;;17.25;56.40;96769.41;5115074;28;20511;-74
2021/06/03 00:24:51;;;;;;;1.65;1.55;;;;;;;17.24;56.67;96764.38;5115184;28;20035;-74
2021/06/03 00:27:17;;;;;;;1.45;1.35;;;;;;;17.20;56.84;96766.72;5115165;28;20376;-74
2021/06/03 00:29:43;;;;;;;1.52;1.42;;;;;;;17.17;57.01;96761.13;5115028;28;20032;-74
2021/06/03 00:32:10;;;;;;;1.65;1.55;;;;;;;17.13;57.17;96770.63;5114804;28;20106;-74
2021/06/03 00:34:36;;;;;;;1.90;1.52;;;;;;;17.08;57.55;96758.13;5114704;28;20403;-73
2021/06/03 00:37:02;;;;;;;2.05;1.40;;;;;;;17.03;57.77;96771.34;5115261;28;20051;-74
2021/06/03 00:39:29;;;;;;;1.50;1.40;;;;;;;16.98;58.10;96758.81;5114823;28;20059;-74
2021/06/03 00:41:55;;;;;;;1.90;1.80;;;;;;;16.95;58.39;96758.53;5114897;28;20050;-74
2021/06/03 00:44:22;;;;;;;1.90;1.80;;;;;;;16.89;58.51;96748.94;5114474;28;20054;-74
2021/06/03 00:46:48;;;;;;;2.13;1.30;;;;;;;16.84;58.75;96758.44;5114657;28;20036;-74
2021/06/03 00:49:14;;;;;;;1.23;1.20;;;;;;;16.82;58.93;96765.84;5114899;28;20039;-74
2021/06/03 00:51:40;;;;;;;1.35;1.35;;;;;;;16.80;59.26;96760.00;5114485;28;20391;-75
2021/06/03 00:54:06;;;;;;;1.40;1.30;;;;;;;16.79;59.47;96757.56;5114856;28;20040;-74
2021/06/03 00:56:35;;;;;;;1.48;1.48;;;;;;;16.76;59.66;96766.00;5114744;28;20491;-74
2021/06/03 00:59:02;;;;;;;1.70;1.60;;;;;;;16.74;59.94;96760.16;5114507;28;20039;-74
2021/06/03 01:01:28;;;;;;;1.65;1.55;;;;;;;16.71;59.98;96758.78;5114493;28;20035;-74
2021/06/03 01:03:54;;;;;;;1.50;1.40;;;;;;;16.70;60.26;96759.06;5114635;28;20039;-75
2021/06/03 01:06:20;;;;;;;1.38;1.38;;;;;;;16.70;60.57;96765.16;5114131;28;20039;-75
2021/06/03 01:08:52;;;;;;;1.60;1.50;;;;;;;16.70;61.03;96767.00;5114513;28;20058;-74
2021/06/03 01:11:25;;;;;;;1.63;1.50;;;;;;;16.71;60.96;96766.72;5114610;28;20031;-75
2021/06/03 01:14:09;;;;;;;1.52;1.42;;;;;;;16.72;61.37;96772.84;5114263;28;20046;-75
2021/06/03 01:16:36;;;;;;;1.73;1.50;;;;;;;16.72;61.03;96770.19;5114231;28;20043;-75
2021/06/03 01:19:08;;;;;;;1.60;1.60;;;;;;;16.73;61.20;96774.44;5114119;28;20039;-75
2021/06/03 01:21:43;;;;;;;2.15;1.85;;;;;;;16.74;61.20;96774.19;5106668;28;20058;-75
2021/06/03 01:24:15;;;;;;;1.60;1.50;;;;;;;16.74;61.56;96773.41;5114081;28;20038;-75
2021/06/03 01:26:44;;;;;;;1.40;1.40;;;;;;;16.74;61.10;96776.06;5113981;28;20035;-75
2021/06/03 01:29:13;;;;;;;1.52;1.48;;;;;;;16.74;61.42;96774.19;5113741;28;20039;-75
2021/06/03 01:31:42;;;;;;;1.50;1.40;;;;;;;16.75;61.64;96773.13;5114022;28;20047;-75
2021/06/03 01:34:10;;;;;;;1.63;1.52;;;;;;;16.74;61.69;96773.41;5114365;28;20047;-74
2021/06/03 01:36:38;;;;;;;1.80;1.70;;;;;;;16.73;61.84;96775.22;5114143;28;20051;-74
2021/06/03 01:39:07;;;;;;;1.67;1.58;;;;;;;16.75;61.99;96775.00;5113685;28;20471;-74
2021/06/03 01:41:34;;;;;;;1.70;1.60;;;;;;;16.74;62.05;96776.06;5114337;28;20036;-74
2021/06/03 01:44:01;;;;;;;1.85;1.75;;;;;;;16.72;62.28;96778.94;5114129;28;20028;-74
2021/06/03 01:46:28;;;;;;;1.90;1.80;;;;;;;16.71;62.31;96769.38;5113916;28;20035;-74
2021/06/03 01:48:56;;;;;;;1.80;1.70;;;;;;;16.71;62.42;96773.88;5113638;28;20042;-74
2021/06/03 01:51:24;;;;;;;1.75;1.65;;;;;;;16.71;62.46;96774.69;5112710;28;20039;-75
2021/06/03 01:53:51;;;;;;;1.90;1.80;;;;;;;16.72;62.66;96772.84;5113468;28;20043;-75
2021/06/03 01:56:18;;;;;;;1.83;1.73;;;;;;;16.71;62.58;96776.53;5112617;28;20039;-75
2021/06/03 01:58:46;;;;;;;1.75;1.65;;;;;;;16.72;62.63;96778.16;5113761;28;20039;-75
2021/06/03 02:01:12;;;;;;;1.45;1.40;;;;;;;16.71;62.71;96781.84;5112976;28;20032;-76
2021/06/03 02:03:39;;;;;;;1.98;1.88;;;;;;;16.71;62.70;96785.28;5113578;28;20403;-75
2021/06/03 02:06:06;;;;;;;2.08;1.98;;;;;;;16.69;63.01;96776.78;5113244;28;20226;-76
2021/06/03 02:08:33;;;;;;;1.90;1.80;;;;;;;16.66;63.03;96782.59;5113880;28;20092;-76
2021/06/03 02:11:00;;;;;;;1.90;1.80;;;;;;;16.66;63.07;96784.44;5113822;28;20032;-76
2021/06/03 02:13:35;;;;;;;1.75;1.65;;;;;;;16.67;63.64;96793.97;5113714;28;20047;-76
2021/06/03 02:16:24;;;;;;;1.98;1.80;;;;;;;16.67;63.35;96796.63;5099058;28;20035;-76
2021/06/03 02:19:02;;;;;;;3.05;2.20;;;;;;;16.66;63.52;96792.38;5112875;28;20043;-75
2021/06/03 02:21:29;;;;;;;2.55;1.85;;;;;;;16.67;63.40;96799.25;5113983;28;20028;-74
2021/06/03 02:23:57;;;;;;;2.60;1.65;;;;;;;16.67;63.44;96799.25;5113388;28;20036;-74
2021/06/03 02:26:25;;;;;;;1.65;1.55;;;;;;;16.67;63.36;96801.91;5113379;28;20028;-76
2021/06/03 02:28:52;;;;;;;1.95;1.85;;;;;;;16.65;63.44;96799.50;5112060;28;20040;-76
2021/06/03 02:31:19;;;;;;;1.83;1.73;;;;;;;16.62;63.52;96806.09;5113584;28;20038;-75
2021/06/03 02:33:47;;;;;;;1.90;1.63;;;;;;;16.62;63.69;96810.59;5113085;28;20375;-74
2021/06/03 02:36:13;;;;;;;1.85;1.75;;;;;;;16.64;63.81;96804.00;5111896;28;20396;-74
2021/06/03 02:38:40;;;;;;;2.00;1.83;;;;;;;16.62;63.80;96805.31;5113182;28;20044;-73
2021/06/03 02:41:09;;;;;;;2.00;1.90;;;;;;;16.64;63.81;96808.50;5113348;28;20051;-74
2021/06/03 02:43:41;;;;;;;1.85;1.73;;;;;;;16.63;63.80;96809.53;5113335;28;20479;-74
2021/06/03 02:46:07;;;;;;;1.98;1.88;;;;;;;16.61;63.89;96807.16;5112203;28;20035;-74
2021/06/03 02:48:34;;;;;;;1.90;1.80;;;;;;;16.61;63.93;96807.16;5113122;28;20051;-73
2021/06/03 02:51:00;;;;;;;2.90;2.65;;;;;;;16.61;63.90;96803.72;5113134;28;20040;-74
2021/06/03 02:53:26;;;;;;;2.40;2.30;;;;;;;16.61;64.06;96809.03;5113129;28;20380;-74
2021/06/03 02:55:52;;;;;;;3.10;2.90;;;;;;;16.59;64.06;96803.97;5113100;28;20039;-74
2021/06/03 02:58:18;;;;;;;3.33;3.13;;;;;;;16.59;64.17;96808.47;5113163;28;20031;-74
2021/06/03 03:00:45;;;;;;;4.07;3.78;;;;;;;16.58;64.10;96806.84;5113195;28;20380;-74
2021/06/03 03:03:12;;;;;;;3.95;3.65;;;;;;;16.58;64.15;96807.63;5113558;28;20050;-74
2021/06/03 03:05:41;;;;;;;3.33;3.13;;;;;;;16.56;64.25;96811.59;5112840;28;20380;-74
2021/06/03 03:08:09;;;;;;;2.85;2.65;;;;;;;16.54;64.34;96811.81;5113024;28;20046;-74
2021/06/03 03:10:44;;;;;;;2.50;2.30;;;;;;;16.54;64.41;96813.69;5113076;28;20039;-74
2021/06/03 03:13:13;;;;;;;2.78;2.58;;;;;;;16.53;64.38;96814.75;5114739;28;20452;-74
2021/06/03 03:15:39;;;;;;;2.60;2.40;;;;;;;16.52;64.45;96810.47;5117160;28;20040;-74
2021/06/03 03:18:06;;;;;;;2.38;2.17;;;;;;;16.49;64.55;96811.78;5116188;28;20054;-74
2021/06/03 03:20:34;;;;;;;2.28;2.17;;;;;;;16.49;64.43;96813.63;5116605;28;20043;-73
2021/06/03 03:23:02;;;;;;;2.35;2.15;;;;;;;16.48;64.58;96814.66;5107572;28;20400;-73
2021/06/03 03:25:28;;;;;;;2.38;2.17;;;;;;;16.46;64.63;96817.56;5116559;28;20537;-74
2021/06/03 03:27:56;;;;;;;2.03;1.92;;;;;;;16.47;64.83;96824.47;5116734;27;20489;-74
2021/06/03 03:30:26;;;;;;;1.77;1.67;;;;;;;16.44;64.88;96807.22;5116164;28;20036;-73
2021/06/03 03:32:52;;;;;;;2.15;2.05;;;;;;;16.45;64.83;96818.59;5116261;28;20035;-75
2021/06/03 03:35:19;;;;;;;1.90;1.80;;;;;;;16.43;65.03;96812.75;5116253;28;20047;-73
2021/06/03 03:37:48;;;;;;;1.90;1.80;;;;;;;16.43;64.87;96815.41;5116009;28;20059;-75
2021/06/03 03:40:21;;;;;;;2.40;2.28;;;;;;;16.43;65.30;96820.69;5116331;28;20040;-74
2021/06/03 03:42:47;;;;;;;1.67;1.60;;;;;;;16.40;65.18;96824.66;5116478;28;20035;-74
2021/06/03 03:45:16;;;;;;;3.20;1.90;;;;;;;16.39;65.34;96830.19;5115432;28;20051;-76
2021/06/03 03:47:43;;;;;;;1.75;1.65;;;;;;;16.39;65.25;96820.38;5115862;28;20035;-76
2021/06/03 03:50:11;;;;;;;1.80;1.70;;;;;;;16.40;65.40;96815.91;5115937;28;20097;-76
2021/06/03 03:52:38;;;;;;;2.72;1.60;;;;;;;16.40;65.40;96816.72;5115651;27;20039;-76
2021/06/03 03:55:07;;;;;;;1.70;1.60;;;;;;;16.40;65.64;96823.84;5116453;28;20503;-75
2021/06/03 03:57:35;;;;;;;1.73;1.63;;;;;;;16.39;65.74;96823.03;5115458;28;20040;-75
2021/06/03 04:00:03;;;;;;;1.67;1.58;;;;;;;16.41;65.64;96822.78;5115687;27;20050;-74
2021/06/03 04:02:29;;;;;;;1.80;1.70;;;;;;;16.41;65.67;96818.28;5116244;28;20035;-74
2021/06/03 04:04:56;;;;;;;1.73;1.63;;;;;;;16.42;65.73;96811.16;5115011;28;20050;-74
2021/06/03 04:07:22;;;;;;;2.00;1.90;;;;;;;16.43;65.80;96826.00;5115797;28;20070;-74
2021/06/03 04:09:48;;;;;;;1.67;1.60;;;;;;;16.44;65.92;96828.41;5115435;28;20036;-75
2021/06/03 04:12:14;;;;;;;1.70;1.60;;;;;;;16.47;65.96;96832.41;5115625;28;20043;-74
2021/06/03 04:14:41;;;;;;;1.60;1.50;;;;;;;16.48;65.83;96841.13;5115542;28;20028;-75
2021/06/03 04:17:07;;;;;;;2.42;1.70;;;;;;;16.51;66.02;96838.00;5115471;27;20032;-74
2021/06/03 04:19:33;;;;;;;1.80;1.70;;;;;;;16.53;65.92;96838.56;5115465;28;20035;-75
2021/06/03 04:22:01;;;;;;;1.77;1.67;;;;;;;16.53;65.84;96836.72;5115254;28;20039;-73
2021/06/03 04:24:28;;;;;;;2.08;1.88;;;;;;;16.54;65.95;96840.94;5115119;28;20403;-74
2021/06/03 04:26:54;;;;;;;1.80;1.65;;;;;;;16.55;66.01;96855.00;5115061;28;20414;-75
2021/06/03 04:29:20;;;;;;;2.50;2.30;;;;;;;16.56;65.86;96856.59;5115157;28;20055;-75
2021/06/03 04:31:46;;;;;;;1.92;1.83;;;;;;;16.57;66.01;96853.72;5114533;28;20051;-77
2021/06/03 04:34:12;;;;;;;1.83;1.73;;;;;;;16.60;66.23;96852.41;5115669;28;20035;-74
2021/06/03 04:36:39;;;;;;;1.92;1.75;;;;;;;16.63;66.12;96859.84;5115119;28;20055;-75
2021/06/03 04:39:05;;;;;;;1.65;1.60;;;;;;;16.67;66.28;96860.97;5115063;28;20039;-74
2021/06/03 04:41:31;;;;;;;1.92;1.83;;;;;;;16.71;66.16;96863.94;5114839;28;20395;-75
2021/06/03 04:43:58;;;;;;;2.42;1.80;;;;;;;16.72;66.23;96865.53;5115188;28;20050;-75
2021/06/03 04:46:24;;;;;;;1.50;1.50;;;;;;;16.75;66.29;96871.13;5114606;28;20047;-74
2021/06/03 04:48:50;;;;;;;1.80;1.70;;;;;;;16.75;66.11;96875.63;5114614;28;20529;-74
2021/06/03 04:51:16;;;;;;;2.15;2.03;;;;;;;16.71;66.10;96877.16;5114550;27;20055;-74
2021/06/03 04:53:42;;;;;;;2.05;1.95;;;;;;;16.71;66.38;96880.63;5115012;28;20407;-73
2021/06/03 04:56:09;;;;;;;2.05;1.90;;;;;;;16.68;66.32;96883.75;5114453;28;20047;-74
2021/06/03 04:58:35;;;;;;;1.88;1.70;;;;;;;16.64;66.45;96875.50;5114699;28;20039;-74
2021/06/03 05:01:01;;;;;;;1.88;1.77;;;;;;;16.62;66.47;96885.53;5114359;28;20032;-74
2021/06/03 05:03:28;;;;;;;2.10;2.00;;;;;;;16.62;66.71;96887.41;5114888;28;20486;-74
2021/06/03 05:05:54;;;;;;;2.08;1.95;;;;;;;16.59;66.64;96888.69;5114700;28;20039;-73
2021/06/03 05:08:20;;;;;;;2.00;1.90;;;;;;;16.60;66.92;96894.78;5114275;28;20035;-74
2021/06/03 05:10:47;;;;;;;1.90;1.80;;;;;;;16.59;66.88;96893.19;5114097;28;20044;-74
2021/06/03 05:13:13;;;;;;;2.35;2.15;;;;;;;16.60;67.03;96895.56;5114163;28;20040;-73
2021/06/03 05:15:39;;;;;;;1.83;1.70;;;;;;;16.62;66.95;96896.13;5114112;28;20406;-73
2021/06/03 05:18:05;;;;;;;1.90;1.80;;;;;;;16.67;67.08;96895.38;5114642;28;20039;-74
2021/06/03 05:20:31;;;;;;;2.28;2.08;;;;;;;16.73;66.95;96898.91;5114261;28;20046;-74
2021/06/03 05:23:00;;;;;;;1.95;1.85;;;;;;;16.73;67.12;96897.06;5114314;28;20043;-74
2021/06/03 05:25:32;;;;;;;1.65;1.50;;;;;;;16.75;67.29;96902.13;5113997;28;20035;-74
2021/06/03 05:27:59;;;;;;;1.70;1.60;;;;;;;16.81;67.23;96901.97;5114230;28;20048;-73
2021/06/03 05:30:26;;;;;;;2.05;1.95;;;;;;;16.86;67.03;96909.16;5114052;28;20087;-73
2021/06/03 05:32:53;;;;;;;1.90;1.73;;;;;;;16.92;66.98;96915.34;5113691;28;20476;-73
2021/06/03 05:35:21;;;;;;;1.98;1.88;;;;;;;16.96;66.96;96919.09;5112494;28;20073;-74
2021/06/03 05:37:49;;;;;;;1.92;1.83;;;;;;;16.99;66.87;96910.66;5114154;28;20044;-74
2021/06/03 05:40:21;;;;;;;2.05;1.95;;;;;;;17.01;66.80;96917.31;5113909;28;20036;-74
2021/06/03 05:42:49;;;;;;;1.73;1.63;;;;;;;17.02;66.65;96915.47;5113405;28;20072;-74
2021/06/03 05:45:16;;;;;;;1.60;1.50;;;;;;;17.07;66.74;96920.81;5114664;28;20036;-73
2021/06/03 05:47:43;;;;;;;1.88;1.77;;;;;;;17.09;66.59;96921.34;5114395;27;20054;-73
2021/06/03 05:50:12;;;;;;;1.92;1.83;;;;;;;17.11;66.64;96923.78;5113957;28;20051;-74
2021/06/03 05:52:40;;;;;;;1.63;1.58;;;;;;;17.13;66.52;96921.69;5114133;28;20040;-73
2021/06/03 05:55:08;;;;;;;1.95;1.77;;;;;;;17.19;66.68;96933.94;5113837;28;20039;-74
2021/06/03 05:57:35;;;;;;;1.90;1.80;;;;;;;17.22;66.53;96933.47;5113476;28;20039;-74
2021/06/03 06:00:10;;;;;;;1.75;1.65;;;;;;;17.30;66.61;96934.84;5114275;28;20394;-76
2021/06/03 06:07:59;;;;;;;1.50;1.50;;;;;;;17.53;66.22;96939.06;5113617;28;20035;-74
2021/06/03 06:10:26;;;;;;;1.80;1.70;;;;;;;17.62;66.25;96948.97;5113610;28;20031;-74
2021/06/03 06:12:52;;;;;;;1.58;1.48;;;;;;;17.75;66.07;96936.38;5113285;28;20039;-74
2021/06/03 06:15:18;;;;;;;1.70;1.60;;;;;;;17.84;66.12;96940.97;5113879;28;20047;-74
2021/06/03 06:17:44;;;;;;;2.58;1.80;;;;;;;17.92;65.90;96938.94;5113397;28;20039;-74
2021/06/03 06:20:11;;;;;;;2.10;1.35;;;;;;;18.00;65.88;96949.09;5113332;28;20032;-74
2021/06/03 06:22:38;;;;;;;1.50;1.40;;;;;;;18.10;65.65;96956.31;5113839;28;20040;-74
2021/06/03 06:25:05;;;;;;;1.65;1.55;;;;;;;18.20;65.54;96951.88;5113280;28;20467;-75
2021/06/03 06:27:32;;;;;;;1.55;1.45;;;;;;;18.23;65.44;96956.69;5113252;28;20051;-74
2021/06/03 06:29:58;;;;;;;1.33;1.23;;;;;;;18.25;65.28;96956.44;5113034;28;20051;-73
2021/06/03 06:32:32;;;;;;;1.40;1.33;;;;;;;18.26;65.13;96960.69;5113314;28;20047;-74
2021/06/03 06:34:58;;;;;;;1.33;1.27;;;;;;;18.24;65.06;96957.50;5112859;28;20435;-73
2021/06/03 06:37:24;;;;;;;1.52;1.42;;;;;;;18.26;65.35;96958.03;5113055;28;20039;-74
2021/06/03 06:39:51;;;;;;;1.58;1.48;;;;;;;18.29;65.25;96960.19;5113313;28;20051;-73
2021/06/03 06:42:17;;;;;;;1.58;1.48;;;;;;;18.33;65.22;96960.47;5113470;28;20032;-74
2021/06/03 06:44:43;;;;;;;2.05;1.50;;;;;;;18.40;65.14;96958.41;5113161;28;20043;-74
2021/06/03 06:47:09;;;;;;;1.58;1.42;;;;;;;18.51;65.07;96953.97;5114801;28;20048;-74
2021/06/03 06:49:35;;;;;;;1.38;1.27;;;;;;;18.69;65.08;96964.19;5116852;27;20039;-74
2021/06/03 06:52:03;;;;;;;1.52;1.42;;;;;;;18.90;64.84;96959.81;5117036;27;20058;-73
2021/06/03 06:54:29;;;;;;;1.60;1.50;;;;;;;19.15;64.73;96955.63;5116899;28;20387;-74
2021/06/03 06:56:55;;;;;;;2.75;1.50;;;;;;;19.29;63.84;96956.75;5116621;28;20047;-74
2021/06/03 06:59:21;;;;;;;1.40;1.30;;;;;;;19.56;63.50;96955.78;5116926;27;20032;-74
2021/06/03 07:01:48;;;;;;;2.17;1.60;;;;;;;19.81;62.95;96958.50;5116808;28;20046;-74
2021/06/03 07:04:14;;;;;;;1.70;1.60;;;;;;;19.83;62.49;96969.69;5116989;28;20039;-73
2021/06/03 07:06:48;;;;;;;1.75;1.65;;;;;;;19.73;62.42;96959.03;5117074;28;20054;-73
2021/06/03 07:09:14;;;;;;;1.67;1.52;;;;;;;19.72;62.28;96967.25;5116977;28;20039;-74
2021/06/03 07:11:40;;;;;;;1.42;1.40;;;;;;;19.68;62.22;96969.66;5116758;28;20044;-74
2021/06/03 07:14:07;;;;;;;1.73;1.63;;;;;;;19.61;62.12;96967.25;5116242;28;20051;-74
2021/06/03 07:16:33;;;;;;;2.65;1.75;;;;;;;19.56;62.10;96966.41;5116538;28;20383;-73
2021/06/03 07:18:59;;;;;;;1.90;1.80;;;;;;;19.51;61.90;96961.91;5116557;28;20070;-73
2021/06/03 07:21:27;;;;;;;2.10;1.67;;;;;;;19.56;61.70;96961.09;5116816;28;20034;-73
2021/06/03 07:23:53;;;;;;;1.95;1.80;;;;;;;19.61;61.59;96967.25;5116563;28;20483;-74
2021/06/03 07:26:19;;;;;;;1.77;1.67;;;;;;;19.62;61.50;96958.19;5116456;28;20042;-74
2021/06/03 07:28:47;;;;;;;1.70;1.60;;;;;;;19.63;61.40;96958.97;5116686;28;20043;-74
2021/06/03 07:31:13;;;;;;;1.58;1.48;;;;;;;19.61;60.97;96961.09;5116226;27;20043;-74
2021/06/03 07:33:39;;;;;;;2.08;1.88;;;;;;;19.73;61.12;96960.91;5115917;27;20046;-73
2021/06/03 07:36:08;;;;;;;2.15;1.63;;;;;;;19.87;60.84;96962.78;5115968;28;20047;-74
2021/06/03 07:38:38;;;;;;;1.60;1.50;;;;;;;19.96;60.63;96951.59;5115901;28;20055;-74
2021/06/03 07:41:04;;;;;;;1.55;1.45;;;;;;;20.02;60.39;96953.22;5115944;28;20039;-74
2021/06/03 07:43:31;;;;;;;1.55;1.45;;;;;;;20.17;60.43;96949.75;5116183;28;20038;-74
2021/06/03 07:45:58;;;;;;;1.80;1.70;;;;;;;20.24;60.06;96958.25;5116100;28;20031;-74
2021/06/03 07:48:24;;;;;;;1.90;1.77;;;;;;;20.30;59.84;96953.72;5116036;28;20032;-73
2021/06/03 07:50:50;;;;;;;1.58;1.50;;;;;;;20.35;59.77;96959.84;5114796;28;20451;-74
2021/06/03 07:53:17;;;;;;;1.65;1.55;;;;;;;20.25;59.54;96951.88;5116082;28;20035;-74
2021/06/03 07:55:43;;;;;;;2.17;1.50;;;;;;;20.26;59.89;96953.44;5115484;28;20047;-74
2021/06/03 07:58:12;;;;;;;1.70;1.60;;;;;;;20.35;59.77;96953.72;5114830;28;20028;-74
2021/06/03 08:00:41;;;;;;;1.77;1.60;;;;;;;20.38;59.72;96959.31;5116297;27;20050;-73
2021/06/03 08:03:09;;;;;;;1.60;1.50;;;;;;;20.51;59.64;96959.84;5115396;27;20040;-74
2021/06/03 08:05:36;;;;;;;1.20;1.20;;;;;;;20.59;59.39;96957.44;5115945;28;20043;-74
2021/06/03 08:08:02;;;;;;;1.70;1.60;;;;;;;20.67;59.23;96961.44;5114871;27;20052;-73
2021/06/03 08:10:36;;;;;;;1.30;1.20;;;;;;;20.68;58.57;96957.69;5115250;28;20036;-72
2021/06/03 08:13:03;;;;;;;1.75;1.30;;;;;;;20.63;58.82;96958.50;5115567;28;20039;-72
2021/06/03 08:15:32;;;;;;;1.33;1.33;;;;;;;20.66;59.00;96954.50;5115310;28;20039;-72
2021/06/03 08:18:02;;;;;;;1.40;1.30;;;;;;;20.68;59.00;96957.69;5115859;28;20036;-73
2021/06/03 08:20:34;;;;;;;1.30;1.20;;;;;;;20.72;58.74;96952.63;5115367;27;20036;-72
2021/06/03 08:23:02;;;;;;;1.40;1.17;;;;;;;20.88;58.72;96946.97;5115256;28;20035;-72
2021/06/03 08:25:28;;;;;;;3.10;1.15;;;;;;;21.24;58.08;96954.03;5115301;28;20040;-72
2021/06/03 08:27:54;;;;;;;1.38;1.27;;;;;;;21.78;57.29;96936.44;5114844;28;20055;-73
2021/06/03 08:30:21;;;;;;;1.00;1.00;;;;;;;22.35;55.91;96939.47;5115511;28;20043;-72
2021/06/03 08:32:49;;;;;;;1.08;1.05;;;;;;;22.78;55.03;96926.97;5114922;28;20040;-73
2021/06/03 08:35:17;;;;;;;1.20;1.10;;;;;;;22.78;53.74;96920.84;5115216;28;20064;-72
2021/06/03 08:37:47;;;;;;;2.15;1.30;;;;;;;22.91;53.46;96909.47;5105498;28;20047;-72
2021/06/03 08:40:18;;;;;;;1.05;1.05;;;;;;;23.07;52.83;96908.22;5114370;28;20027;-73
2021/06/03 08:42:45;;;;;;;1.58;1.05;;;;;;;23.36;52.78;96907.31;5114325;28;20032;-72
2021/06/03 08:45:14;;;;;;;2.53;1.23;;;;;;;23.73;52.21;96907.56;5114587;28;20039;-72
2021/06/03 08:47:40;;;;;;;1.20;1.13;;;;;;;23.91;51.04;96898.75;5114801;28;20040;-73
2021/06/03 08:50:08;;;;;;;1.20;1.05;;;;;;;24.07;50.80;96889.38;5114637;28;20027;-74
2021/06/03 08:52:35;;;;;;;1.08;0.85;;;;;;;23.98;50.02;96885.81;5115313;28;20058;-73
2021/06/03 08:55:08;;;;;;;1.50;1.10;;;;;;;23.99;48.88;96879.34;5114529;28;20040;-75
2021/06/03 08:57:35;;;;;;;;;;;;;;;24.15;48.21;96873.72;5115510;28;20031;-74
2021/06/03 09:00:02;;;;;;;0.98;0.85;;;;;;;24.15;48.93;96876.38;5114705;28;19922;-74
2021/06/03 09:02:28;;;;;;;1.15;0.90;;;;;;;24.10;48.80;96872.72;5114282;27;20035;-74
2021/06/03 09:04:55;;;;;;;1.05;1.00;;;;;;;24.23;48.80;96870.34;5114412;28;20038;-74
2021/06/03 09:07:48;;;;;;;0.98;0.98;;;;;;;24.46;46.49;96858.69;5113806;28;20051;-74
2021/06/03 09:10:28;;;;;;;0.95;0.95;;;;;;;24.73;46.92;96854.41;5111446;27;20051;-75
2021/06/03 09:13:12;;;;;;;1.20;1.10;;;;;;;24.88;45.26;96853.31;5114215;28;20046;-74
2021/06/03 09:15:41;;;;;;;0.88;0.88;;;;;;;24.86;46.46;96867.03;5114398;28;20036;-74
2021/06/03 09:18:09;;;;;;;1.10;1.00;;;;;;;24.95;46.69;96869.00;5114126;28;20039;-74
2021/06/03 09:20:46;;;;;;;1.65;1.20;;;;;;;25.29;46.51;96855.94;5114415;27;20459;-74
2021/06/03 09:23:31;;;;;;;0.90;0.90;;;;;;;25.73;44.91;96842.84;5114251;28;20035;-74
2021/06/03 09:25:59;;;;;;;0.80;0.80;;;;;;;25.91;45.35;96852.63;5114373;28;20568;-74
2021/06/03 09:28:32;;;;;;;2.25;1.02;;;;;;;25.87;44.10;96854.31;5112905;28;20403;-74
2021/06/03 09:31:00;;;;;;;1.10;0.95;;;;;;;25.82;44.43;96861.69;5104577;28;20032;-74
2021/06/03 09:33:51;;;;;;;1.40;1.30;;;;;;;25.70;44.05;96859.56;5113360;28;20055;-74
2021/06/03 09:36:36;;;;;;;1.25;1.10;;;;;;;25.89;43.69;96862.09;5114062;28;20052;-75
2021/06/03 09:39:05;;;;;;;1.00;1.00;;;;;;;26.08;43.97;96860.00;5113198;28;20047;-75
2021/06/03 09:41:34;;;;;;;1.17;0.90;;;;;;;26.21;43.53;96866.41;5114059;28;20409;-75
2021/06/03 09:44:05;;;;;;;0.90;0.90;;;;;;;26.16;42.45;96869.19;5113971;28;20051;-76
2021/06/03 09:46:44;;;;;;;1.25;0.85;;;;;;;25.88;42.48;96861.25;5113903;28;20047;-75
2021/06/03 09:49:34;;;;;;;0.60;0.60;;;;;;;26.04;43.49;96868.97;5113792;28;20031;-75
2021/06/03 09:52:18;;;;;;;0.82;0.70;;;;;;;26.32;42.39;96856.94;5113961;28;20563;-75
2021/06/03 09:54:53;;;;;;;1.23;1.10;;;;;;;26.67;41.97;96843.66;5113674;28;20031;-75
2021/06/03 09:57:20;;;;;;;1.73;0.90;;;;;;;26.85;41.87;96844.47;5113802;28;20050;-76
2021/06/03 09:59:56;;;;;;;1.20;1.10;;;;;;;26.98;41.30;96858.13;5114162;28;20046;-75
2021/06/03 10:02:23;;;;;;;1.17;1.02;;;;;;;26.97;41.09;96851.16;5112947;28;20042;-75
2021/06/03 10:04:52;;;;;;;1.02;0.93;;;;;;;26.98;40.85;96844.66;5113829;28;20039;-75
2021/06/03 10:07:24;;;;;;;0.80;0.80;;;;;;;27.25;41.07;96851.69;5113506;28;20042;-75
2021/06/03 10:10:05;;;;;;;0.88;0.80;;;;;;;27.43;39.31;96836.34;5113245;28;20399;-75
2021/06/03 10:12:42;;;;;;;1.60;0.90;;;;;;;27.47;40.01;96858.84;5113702;28;20031;-75
2021/06/03 10:15:20;;;;;;;1.35;0.70;;;;;;;27.48;40.20;96873.88;5113696;28;20032;-75
2021/06/03 10:17:54;;;;;;;2.28;0.70;;;;;;;27.06;40.38;96870.81;5113151;28;20044;-75
2021/06/03 10:20:22;;;;;;;0.70;0.70;;;;;;;26.69;40.84;96875.63;5113053;28;20392;-75
2021/06/03 10:22:51;;;;;;;1.00;0.90;;;;;;;26.59;41.08;96881.31;5116489;28;20038;-75
2021/06/03 10:25:22;;;;;;;0.73;0.70;;;;;;;26.58;41.33;96887.78;5116744;28;20040;-75
2021/06/03 10:27:57;;;;;;;0.70;0.70;;;;;;;26.56;41.40;96889.94;5117390;28;20027;-75
2021/06/03 10:30:26;;;;;;;0.80;0.80;;;;;;;26.51;41.70;96888.97;5117429;28;20050;-75
2021/06/03 10:32:55;;;;;;;0.95;0.60;;;;;;;26.61;41.61;96877.19;5118127;28;20045;-75
2021/06/03 10:35:25;;;;;;;1.00;0.77;;;;;;;26.65;41.39;96880.06;5116890;28;20047;-75
2021/06/03 10:37:53;;;;;;;0.70;0.70;;;;;;;27.04;41.38;96875.72;5116825;28;20055;-75
2021/06/03 10:40:22;;;;;;;1.02;0.95;;;;;;;27.50;40.35;96868.97;5116992;28;20055;-75
2021/06/03 10:42:50;;;;;;;0.60;0.60;;;;;;;27.99;39.88;96858.81;5116980;28;20035;-75
2021/06/03 10:45:20;;;;;;;0.60;0.60;;;;;;;28.23;39.39;96860.94;5117487;28;20044;-75
2021/06/03 10:47:47;;;;;;;1.15;0.70;;;;;;;28.23;38.89;96874.44;5116625;28;20055;-75
2021/06/03 10:50:18;;;;;;;0.98;0.60;;;;;;;28.08;38.58;96883.84;5117422;28;20051;-75
2021/06/03 10:52:46;;;;;;;0.60;0.60;;;;;;;27.99;38.78;96883.06;5117161;28;20037;-75
2021/06/03 10:55:29;;;;;;;0.75;0.70;;;;;;;27.80;37.99;96877.97;5116855;28;20051;-75
2021/06/03 10:57:59;;;;;;;0.73;0.73;;;;;;;27.63;38.38;96880.69;5117062;28;20027;-75
2021/06/03 11:00:30;;;;;;;1.00;0.65;;;;;;;27.56;37.89;96873.09;5116950;28;20028;-75
2021/06/03 11:03:22;;;;;;;0.55;0.50;;;;;;;27.33;37.95;96861.69;5116975;28;20035;-75
2021/06/03 11:06:00;;;;;;;1.17;0.77;;;;;;;27.16;37.09;96857.03;5117056;28;20036;-75
2021/06/03 11:08:46;;;;;;;0.55;0.55;;;;;;;27.19;37.72;96863.69;5116497;28;20101;-75
2021/06/03 11:11:12;;;;;;;0.98;0.93;;;;;;;27.30;37.60;96859.63;5117020;28;20452;-75
2021/06/03 11:13:59;;;;;;;0.75;0.57;;;;;;;27.16;36.90;96862.44;5116714;28;20039;-76
2021/06/03 11:16:35;;;;;;;0.65;0.65;;;;;;;27.01;37.51;96868.28;5116329;28;20039;-75
2021/06/03 11:19:02;;;;;;;0.50;0.50;;;;;;;27.03;37.94;96874.13;5116700;27;20040;-75
2021/06/03 11:21:31;;;;;;;0.60;0.60;;;;;;;26.98;38.69;96874.28;5115734;28;20036;-75
2021/06/03 11:24:35;;;;;;;0.60;0.60;;;;;;;26.98;40.78;96893.13;5116921;28;20038;-75
2021/06/03 11:27:04;;;;;;;0.77;0.77;;;;;;;26.39;39.56;96880.69;5116297;28;20043;-75
2021/06/03 11:29:33;;;;;;;0.80;0.80;;;;;;;25.99;40.83;96879.84;5116548;28;20055;-75
2021/06/03 11:32:08;;;;;;;2.35;0.80;;;;;;;25.80;42.96;96890.78;5103086;28;20039;-75
2021/06/03 11:34:55;;;;;;;2.22;0.90;;;;;;;25.56;44.27;96913.34;5114788;28;20353;-75
2021/06/03 11:37:38;;;;;;;1.05;0.82;;;;;;;25.25;44.87;96911.31;5116657;28;20050;-75
2021/06/03 11:40:04;;;;;;;2.42;0.93;;;;;;;24.94;44.95;96904.97;5108391;28;20036;-75
2021/06/03 11:42:40;;;;;;;1.92;0.93;;;;;;;24.64;47.17;96921.38;5116098;28;20459;-76
2021/06/03 11:45:17;;;;;;;1.05;0.90;;;;;;;24.44;49.55;96938.59;5116286;28;20039;-75
2021/06/03 11:47:43;;;;;;;1.15;0.90;;;;;;;24.45;48.41;96924.09;5115727;28;20053;-75